Latest Coastal Weather Observations for Rosslyn Bay Harbour

IDQ60701

Issued at 10:02 pm EST Monday 22 April 2019 (issued every 10 minutes, with the page automatically refreshed every 10 minutes)

About coastal observations | Map of coastal stations | Coastal observations for QLD | Marine services | Other Formats
Station Details ID: 033208 Name: ROSSLYN BAY NTC AWS Lat: -23.16 Lon: 150.79 Height: 0.0 m
Data from the previous 72 hours. | See also: Recent months for locations in Queensland
Date/Time
EST
Wind Sea
Height
m
Swell Vis
km
Cloud Weather Temp
°C
Press
hPa
Rain since
9am
mm
Dir  Spd
kts
Gust
kts
Height
m
Period
s
Dir
22/10:00pm S 11 19 - - - - - - - 24.9 1018.1 -
22/09:30pm S 11 18 - - - - - - - 24.9 1018.0 -
22/09:00pm S 12 18 - - - - - - - 24.9 1018.1 -
22/08:30pm S 12 17 - - - - - - - 24.9 1017.9 -
22/08:00pm S 10 18 - - - - - - - 25.0 1017.8 -
22/07:30pm S 10 17 - - - - - - - 24.9 1017.5 -
22/07:00pm S 10 16 - - - - - - - 25.0 1017.1 -
22/06:30pm SSW 5 12 - - - - - - - 24.5 1016.7 -
22/06:00pm S 6 11 - - - - - - - 24.4 1016.4 -
22/05:30pm S 9 15 - - - - - - - 24.6 1016.1 -
22/05:00pm S 10 17 - - - - - - - 24.5 1015.9 -
22/04:30pm S 11 16 - - - - - - - 24.4 1015.7 -
22/04:00pm S 10 18 - - - - - - - 24.5 1015.6 -
22/03:30pm S 7 13 - - - - - - - 24.6 1015.5 -
22/03:00pm S 8 23 - - - - - - - 22.7 1015.6 -
22/02:30pm S 9 18 - - - - - - - 24.6 1015.6 -
22/02:00pm S 9 16 - - - - - - - 24.8 1015.6 -
22/01:30pm S 11 21 - - - - - - - 24.7 1015.7 -
22/01:00pm S 11 20 - - - - - - - 24.6 1015.9 -
22/12:30pm S 12 21 - - - - - - - 24.4 1016.0 -
22/12:00pm S 12 19 - - - - - - - 24.4 1016.4 -
22/11:30am S 11 16 - - - - - - - 24.5 1016.7 -
22/11:00am S 11 17 - - - - - - - 24.3 1017.2 -
22/10:30am S 10 17 - - - - - - - 24.1 1017.5 -
22/10:00am S 11 18 - - - - - - - 24.0 1017.6 -
22/09:30am S 10 21 - - - - - - - 24.0 1017.7 -
22/09:00am S 10 20 - - - - - - - 23.6 1017.6 -
22/08:30am S 10 18 - - - - - - - 23.5 1017.2 -
22/08:00am S 11 20 - - - - - - - 23.2 1017.0 -
22/07:30am S 8 17 - - - - - - - 23.2 1016.6 -
22/07:00am S 5 14 - - - - - - - 23.0 1016.4 -
22/06:30am S 8 15 - - - - - - - 22.8 1016.1 -
22/06:00am S 7 17 - - - - - - - 22.7 1015.8 -
22/05:30am S 8 18 - - - - - - - 22.7 1015.8 -
22/05:00am S 8 18 - - - - - - - 22.8 1015.4 -
22/04:30am S 9 19 - - - - - - - 22.8 1015.2 -
22/04:00am S 10 19 - - - - - - - 23.1 1015.1 -
22/03:30am S 10 19 - - - - - - - 23.1 1015.3 -
22/03:00am S 11 19 - - - - - - - 23.2 1015.3 -
22/02:30am S 10 18 - - - - - - - 23.3 1015.5 -
22/02:00am S 11 21 - - - - - - - 23.3 1015.8 -
22/01:30am S 11 20 - - - - - - - 23.4 1016.1 -
22/01:00am S 11 20 - - - - - - - 23.5 1016.4 -
22/12:30am S 11 21 - - - - - - - 23.6 1016.9 -
22/12:00am S 10 19 - - - - - - - 23.8 1017.1 -
 
Date/Time
EST
Wind Sea
Height
m
Swell Vis
km
Cloud Weather Temp
°C
Press
hPa
Rain since
9am
mm
Dir  Spd
kts
Gust
kts
Height
m
Period
s
Dir
21/11:30pm S 11 21 - - - - - - - 23.9 1017.4 -
21/11:03pm S 15 26 - - - - - - - 23.7 1017.3 -
21/11:00pm S 14 26 - - - - - - - 23.7 1017.3 -
21/10:30pm S 15 27 - - - - - - - 23.7 1017.3 -
21/10:21pm S 15 30 - - - - - - - 24.2 1017.2 -
21/10:00pm S 12 24 - - - - - - - 24.2 1017.5 -
21/09:30pm S 14 25 - - - - - - - 24.3 1017.2 -
21/09:15pm S 15 26 - - - - - - - 23.8 1017.1 -
21/09:00pm S 14 26 - - - - - - - 24.5 1017.0 -
21/08:30pm S 13 23 - - - - - - - 24.7 1017.1 -
21/08:18pm S 15 29 - - - - - - - 24.7 1016.7 -
21/08:00pm S 12 29 - - - - - - - 24.7 1016.5 -
21/07:30pm S 13 24 - - - - - - - 24.6 1016.4 -
21/07:00pm S 10 17 - - - - - - - 24.0 1015.9 -
21/06:30pm S 13 22 - - - - - - - 22.9 1015.5 -
21/06:00pm S 10 17 - - - - - - - 24.6 1015.5 -
21/05:30pm S 12 21 - - - - - - - 22.9 1015.4 -
21/05:00pm S 10 17 - - - - - - - 23.4 1014.7 -
21/04:30pm S 10 21 - - - - - - - 24.9 1014.4 -
21/04:00pm S 9 18 - - - - - - - 23.9 1014.1 -
21/03:30pm S 10 14 - - - - - - - 25.0 1014.3 -
21/03:00pm S 10 15 - - - - - - - 24.6 1014.3 -
21/02:33pm S 15 28 - - - - - - - 22.8 1014.6 -
21/02:30pm S 13 28 - - - - - - - 25.1 1014.5 -
21/02:00pm S 9 16 - - - - - - - 25.2 1014.7 -
21/01:30pm S 13 20 - - - - - - - 24.2 1014.9 -
21/01:00pm S 9 17 - - - - - - - 24.6 1015.2 -
21/12:30pm S 9 16 - - - - - - - 24.2 1015.6 -
21/12:00pm S 12 22 - - - - - - - 23.8 1015.7 -
21/11:30am S 12 21 - - - - - - - 24.2 1016.1 -
21/11:00am S 13 21 - - - - - - - 24.3 1016.2 -
21/10:30am S 17 27 - - - - - - - 24.1 1016.5 -
21/10:28am S 16 27 - - - - - - - 24.1 1016.4 -
21/10:00am S 14 22 - - - - - - - 24.7 1016.6 -
21/09:30am S 10 19 - - - - - - - 24.3 1016.4 -
21/09:00am S 10 18 - - - - - - - 24.1 1016.4 -
21/08:30am S 12 23 - - - - - - - 24.4 1016.0 -
21/08:00am S 9 16 - - - - - - - 24.1 1016.1 -
21/07:30am S 6 12 - - - - - - - 23.7 1016.1 -
21/07:00am S 6 15 - - - - - - - 23.4 1015.9 -
21/06:30am S 7 18 - - - - - - - 23.2 1015.9 -
21/06:00am S 6 16 - - - - - - - 23.3 1015.7 -
21/05:30am S 7 18 - - - - - - - 23.2 1015.4 -
21/05:00am S 7 19 - - - - - - - 23.1 1015.0 -
21/04:30am S 6 16 - - - - - - - 23.1 1014.8 -
21/04:00am S 6 17 - - - - - - - 23.3 1014.5 -
21/03:30am S 8 16 - - - - - - - 23.6 1014.7 -
21/03:00am S 7 17 - - - - - - - 23.5 1014.9 -
21/02:30am S 9 17 - - - - - - - 23.7 1015.1 -
21/02:00am S 9 18 - - - - - - - 23.8 1015.1 -
21/01:30am S 10 19 - - - - - - - 23.8 1015.4 -
21/01:00am S 11 20 - - - - - - - 23.7 1015.7 -
21/12:30am S 12 20 - - - - - - - 24.0 1015.8 -
21/12:00am S 11 19 - - - - - - - 24.1 1015.8 -
 
Date/Time
EST
Wind Sea
Height
m
Swell Vis
km
Cloud Weather Temp
°C
Press
hPa
Rain since
9am
mm
Dir  Spd
kts
Gust
kts
Height
m
Period
s
Dir
20/11:30pm S 9 18 - - - - - - - 24.3 1016.0 -
20/11:00pm S 12 21 - - - - - - - 23.7 1016.1 -
20/10:30pm S 11 18 - - - - - - - 24.5 1016.2 -
20/10:00pm S 11 21 - - - - - - - 24.4 1016.0 -
20/09:30pm S 13 21 - - - - - - - 24.1 1016.1 -
20/09:00pm S 10 18 - - - - - - - 24.8 1016.1 -
20/08:30pm S 12 21 - - - - - - - 24.9 1016.1 -
20/08:00pm S 11 19 - - - - - - - 24.8 1016.1 -
20/07:30pm S 9 20 - - - - - - - 24.8 1016.2 -
20/07:00pm S 6 11 - - - - - - - 24.1 1016.1 -
20/06:30pm S 7 14 - - - - - - - 23.2 1015.8 -
20/06:00pm S 14 23 - - - - - - - 22.9 1015.8 -
20/05:30pm S 10 18 - - - - - - - 25.0 1015.6 -
20/05:00pm S 10 21 - - - - - - - 25.1 1015.1 -
20/04:30pm S 9 17 - - - - - - - 24.9 1014.8 -
20/04:00pm S 10 17 - - - - - - - 24.6 1014.9 -
20/03:30pm S 12 20 - - - - - - - 25.0 1015.0 -
20/03:00pm S 11 21 - - - - - - - 24.8 1014.9 -
20/02:30pm S 11 20 - - - - - - - 24.7 1015.0 -
20/02:00pm S 10 19 - - - - - - - 24.9 1015.1 -
20/01:30pm S 13 23 - - - - - - - 25.0 1015.2 -
20/01:00pm S 12 20 - - - - - - - 25.1 1015.4 -
20/12:30pm S 11 22 - - - - - - - 25.3 1015.6 -
20/12:00pm S 11 19 - - - - - - - 25.0 1016.0 -
20/11:30am S 11 21 - - - - - - - 25.0 1016.5 -
20/11:00am S 13 23 - - - - - - - 24.8 1016.9 -
20/10:30am S 12 21 - - - - - - - 24.7 1017.3 -
20/10:00am S 11 18 - - - - - - - 24.6 1017.5 -
20/09:30am S 5 12 - - - - - - - 24.6 1017.4 -
20/09:00am S 11 20 - - - - - - - 23.9 1017.3 -
20/08:30am S 10 17 - - - - - - - 23.6 1017.3 -
20/08:00am S 10 18 - - - - - - - 23.4 1017.2 -
20/07:30am S 9 18 - - - - - - - 23.3 1017.0 -
20/07:00am S 7 16 - - - - - - - 23.2 1016.7 -
20/06:30am SSW 5 9 - - - - - - - 21.8 1016.5 -
20/06:00am SSW 4 7 - - - - - - - 21.4 1016.3 -
20/05:30am SSW 4 7 - - - - - - - 21.2 1016.1 -
20/05:00am SSW 4 7 - - - - - - - 21.0 1015.9 -
20/04:30am SSW 5 8 - - - - - - - 21.1 1015.8 -
20/04:00am SSW 5 8 - - - - - - - 21.3 1015.6 -
20/03:30am SSW 4 9 - - - - - - - 22.1 1015.5 -
20/03:00am S 6 15 - - - - - - - 22.9 1015.4 -
20/02:30am S 5 13 - - - - - - - 23.1 1015.6 -
20/02:00am S 4 14 - - - - - - - 23.3 1016.0 -
20/01:30am S 7 16 - - - - - - - 23.4 1016.4 -
20/01:00am S 5 15 - - - - - - - 23.6 1016.8 -
20/12:30am S 5 14 - - - - - - - 23.6 1017.3 -
20/12:00am S 5 13 - - - - - - - 23.8 1017.5 -
 
Date/Time
EST
Wind Sea
Height
m
Swell Vis
km
Cloud Weather Temp
°C
Press
hPa
Rain since
9am
mm
Dir  Spd
kts
Gust
kts
Height
m
Period
s
Dir
19/11:30pm S 4 11 - - - - - - - 24.0 1017.7 -
19/11:00pm S 6 13 - - - - - - - 24.3 1018.0 -
19/10:30pm S 10 19 - - - - - - - 24.5 1018.3 -

Other formats

Comma delimited format used in spreadsheet applications
http://www.bom.gov.au/fwo/IDQ60701/IDQ60701.95298.axf

JavaScript Object Notation format (JSON) in row-major order
http://www.bom.gov.au/fwo/IDQ60701/IDQ60701.95298.json

Data quality

Most of these data are generated automatically and are frequently updated. Quality checks on data are not normally performed. It is possible for incorrect values to appear. Refer to information at About Latest Weather Observations and please check the disclaimer before using these data.